San Salvador de Jujuy, Argentina
Current Conditions -  °F | °C
As of 8:00 PM on Thursday 27 Nov 2014 (Local Time) from SASJ Reporting Station
Thunderstorm Thunderstorm  
Wind Chill: 68°   Ceiling: 10000
Heat Index: 68°   Visibility: 5mi
Dew Point: 66°   Wind: 6mph
Humidity: 94%   Direction: 320°NW
Pressure: 30"   Gusts: NA
Location:  24.2°S, 65.3°W
Report Text: SASJ 272300Z 32005KT 8000 TSRA SCT025FEW035CB BKN100 20/19 Q1016
Loading
Personal Weather Stations






























Interactive Weather Map New forecast layout! Learn more

10-Day Weather Forecast

Advertisements
Track Severe Weather on mobile